createdAt,value
2019-04-26T00:03:22.991Z,4
2019-04-26T00:08:25.499Z,4
2019-04-26T00:13:27.871Z,4
2019-04-26T00:18:30.297Z,3
2019-04-26T00:23:32.743Z,4
2019-04-26T00:28:35.316Z,4
2019-04-26T00:33:37.692Z,3
2019-04-26T00:38:40.174Z,3
2019-04-26T00:43:42.726Z,4
2019-04-26T00:48:45.046Z,5
2019-04-26T00:53:47.496Z,4
2019-04-26T00:58:49.959Z,4
2019-04-26T01:03:52.461Z,4
2019-04-26T01:08:54.874Z,4
2019-04-26T01:13:57.333Z,4
2019-04-26T01:18:59.831Z,5
2019-04-26T01:24:02.258Z,4
2019-04-26T01:29:04.848Z,5
2019-04-26T01:34:07.280Z,5
2019-04-26T01:39:09.608Z,5
2019-04-26T01:44:12.159Z,5
2019-04-26T01:49:14.643Z,6
2019-04-26T01:54:17.174Z,5
2019-04-26T01:59:19.501Z,6
2019-04-26T02:04:22.836Z,5
2019-04-26T02:09:24.369Z,6
2019-04-26T02:14:27.003Z,5
2019-04-26T02:19:29.511Z,5
2019-04-26T02:24:32.195Z,5
2019-04-26T02:29:34.733Z,6
2019-04-26T02:34:37.912Z,6
2019-04-26T02:39:39.111Z,5
2019-04-26T02:44:41.652Z,5
2019-04-26T02:49:44.070Z,6
2019-04-26T02:54:46.479Z,5
2019-04-26T02:59:49.115Z,6
2019-04-26T03:04:51.722Z,5
2019-04-26T03:09:53.922Z,7
2019-04-26T03:15:12.029Z,6
2019-04-26T03:19:58.973Z,6
2019-04-26T03:25:01.544Z,6
2019-04-26T03:30:18.139Z,7
2019-04-26T03:35:06.409Z,9
2019-04-26T03:40:08.626Z,15
2019-04-26T03:45:11.266Z,7
2019-04-26T03:50:13.517Z,7
2019-04-26T03:55:16.321Z,6
2019-04-26T04:00:18.520Z,7
2019-04-26T04:10:23.572Z,7
2019-04-26T04:15:25.925Z,6
2019-04-26T04:20:28.305Z,7
2019-04-26T04:25:30.794Z,7
2019-04-26T04:30:33.202Z,6
2019-04-26T04:35:35.668Z,8
2019-04-26T04:40:38.154Z,7
2019-04-26T04:45:42.377Z,9
2019-04-26T04:50:44.780Z,7
2019-04-26T04:55:46.265Z,9
2019-04-26T05:00:47.970Z,8
2019-04-26T05:05:51.104Z,8
2019-04-26T05:10:52.863Z,7
2019-04-26T05:15:55.425Z,7
2019-04-26T05:20:57.754Z,6
2019-04-26T05:26:00.380Z,7
2019-04-26T05:31:02.672Z,5
2019-04-26T05:36:05.345Z,7
2019-04-26T05:41:07.598Z,6
2019-04-26T05:46:10.107Z,6
2019-04-26T05:51:12.554Z,6
2019-04-26T05:56:15.060Z,5
2019-04-26T06:01:17.452Z,5
2019-04-26T06:06:19.934Z,5
2019-04-26T06:11:22.342Z,5
2019-04-26T06:16:25.011Z,5
2019-04-26T06:21:27.401Z,5
2019-04-26T06:26:29.770Z,6
2019-04-26T06:31:32.327Z,3
2019-04-26T06:36:34.877Z,3
2019-04-26T06:41:37.232Z,4
2019-04-26T06:46:39.780Z,4
2019-04-26T06:51:42.726Z,3
2019-04-26T06:56:44.504Z,3
2019-04-26T07:01:46.964Z,4
2019-04-26T07:06:49.781Z,3
2019-04-26T07:11:51.891Z,3
2019-04-26T07:16:54.656Z,3
2019-04-26T07:21:56.868Z,3
2019-04-26T07:27:01.236Z,2
2019-04-26T07:32:02.147Z,3
2019-04-26T07:37:04.635Z,2
2019-04-26T07:42:07.360Z,2
2019-04-26T07:47:09.106Z,3
2019-04-26T07:52:12.604Z,2
2019-04-26T07:57:14.135Z,2
2019-04-26T08:02:16.466Z,2
2019-04-26T08:07:19.282Z,2
2019-04-26T08:12:21.468Z,2
2019-04-26T08:17:23.856Z,2
2019-04-26T08:22:28.592Z,2
2019-04-26T08:27:28.864Z,3
2019-04-26T08:32:32.012Z,3
2019-04-26T08:37:36.445Z,3
2019-04-26T08:42:36.360Z,2
2019-04-26T08:47:38.705Z,2
2019-04-26T08:52:41.628Z,2
2019-04-26T08:57:43.569Z,3
2019-04-26T09:02:46.467Z,2
2019-04-26T09:07:48.845Z,2
2019-04-26T09:12:51.078Z,2
2019-04-26T09:17:53.522Z,3
2019-04-26T09:22:56.216Z,2
2019-04-26T09:27:58.977Z,3
2019-04-26T09:33:01.937Z,2
2019-04-26T09:38:03.863Z,3
2019-04-26T09:43:05.979Z,2
2019-04-26T09:48:08.385Z,3
2019-04-26T09:53:10.684Z,2
2019-04-26T09:58:13.135Z,2
2019-04-26T10:03:15.628Z,3
2019-04-26T10:08:18.354Z,3
2019-04-26T10:13:20.552Z,3
2019-04-26T10:18:24.248Z,4
2019-04-26T10:23:25.454Z,3
2019-04-26T10:28:27.939Z,3
2019-04-26T10:33:32.516Z,3
2019-04-26T10:38:33.119Z,4
2019-04-26T10:43:35.504Z,3
2019-04-26T10:48:37.925Z,4
2019-04-26T10:53:40.179Z,4
2019-04-26T10:58:42.679Z,3
2019-04-26T11:03:45.109Z,4
2019-04-26T11:08:47.886Z,4
2019-04-26T11:13:50.013Z,4
2019-04-26T11:18:52.945Z,3
2019-04-26T11:23:54.926Z,3
2019-04-26T11:28:57.432Z,4
2019-04-26T11:34:05.277Z,4
2019-04-26T11:39:05.412Z,4
2019-04-26T11:44:04.867Z,4
2019-04-26T11:49:08.234Z,3
2019-04-26T11:54:09.837Z,4
2019-04-26T11:59:12.452Z,4
2019-04-26T12:04:14.674Z,5
2019-04-26T12:09:17.434Z,4
2019-04-26T12:14:20.728Z,4
2019-04-26T12:19:22.274Z,4
2019-04-26T12:24:25.215Z,4
2019-04-26T12:29:26.906Z,5
2019-04-26T12:34:29.385Z,4
2019-04-26T12:39:36.459Z,4
2019-04-26T12:44:36.362Z,5
2019-04-26T12:49:36.945Z,5
2019-04-26T12:54:42.850Z,5
2019-04-26T12:59:44.158Z,6
2019-04-26T13:04:44.639Z,6
2019-04-26T13:09:46.772Z,6
2019-04-26T13:19:53.794Z,6
2019-04-26T13:24:53.995Z,5
2019-04-26T13:30:02.304Z,5
2019-04-26T13:34:58.945Z,5
2019-04-26T13:40:01.382Z,5
2019-04-26T13:45:03.809Z,4
2019-04-26T13:50:06.395Z,4
2019-04-26T13:55:08.838Z,5
2019-04-26T14:00:11.577Z,5
2019-04-26T14:05:15.057Z,4
2019-04-26T14:10:16.482Z,4
2019-04-26T14:15:18.609Z,4
2019-04-26T14:20:23.243Z,4
2019-04-26T14:25:26.921Z,4
2019-04-26T14:30:25.931Z,4
2019-04-26T14:35:28.660Z,6
2019-04-26T14:40:30.883Z,4
2019-04-26T14:45:36.241Z,5
2019-04-26T14:50:35.902Z,4
2019-04-26T14:55:38.364Z,5
2019-04-26T15:00:40.723Z,5
2019-04-26T15:10:48.747Z,7
2019-04-26T15:15:48.111Z,6
2019-04-26T15:20:53.042Z,7
2019-04-26T15:25:53.435Z,9
2019-04-26T15:30:55.453Z,11
2019-04-26T15:35:58.152Z,13
2019-04-26T15:41:00.341Z,15
2019-04-26T15:46:02.812Z,16
2019-04-26T15:51:05.304Z,18
2019-04-26T16:01:10.773Z,22
2019-04-26T16:06:12.746Z,24
2019-04-26T16:11:15.121Z,24
2019-04-26T16:16:20.439Z,27
2019-04-26T16:21:20.123Z,27
2019-04-26T16:26:22.910Z,26
2019-04-26T16:31:24.977Z,27
2019-04-26T16:36:27.487Z,27
2019-04-26T16:41:34.182Z,26
2019-04-26T16:46:33.233Z,25
2019-04-26T16:51:34.757Z,23
2019-04-26T16:56:37.246Z,22
2019-04-26T17:01:43.344Z,25
2019-04-26T17:06:44.673Z,24
2019-04-26T17:11:44.603Z,23
2019-04-26T17:16:47.091Z,22
2019-04-26T17:21:49.521Z,24
2019-04-26T17:26:52.022Z,24
2019-04-26T17:31:54.450Z,25
2019-04-26T17:36:56.942Z,27
2019-04-26T17:42:00.837Z,27
2019-04-26T17:47:02.195Z,28
2019-04-26T17:52:04.281Z,30
2019-04-26T17:57:08.690Z,27
2019-04-26T18:02:20.329Z,27
2019-04-26T18:07:34.555Z,30
2019-04-26T18:12:14.118Z,29
2019-04-26T18:17:16.596Z,27
2019-04-26T18:22:19.006Z,22
2019-04-26T18:27:21.506Z,22
2019-04-26T18:32:24.548Z,18
2019-04-26T18:37:26.421Z,17
2019-04-26T18:42:28.926Z,12
2019-04-26T18:47:31.297Z,9
2019-04-26T18:52:34.127Z,9
2019-04-26T18:57:36.209Z,10
2019-04-26T19:02:38.686Z,9
2019-04-26T19:07:41.212Z,8
2019-04-26T19:12:43.671Z,7
2019-04-26T19:17:46.076Z,5
2019-04-26T19:22:50.288Z,2
2019-04-26T19:27:52.273Z,2
2019-04-26T19:32:53.884Z,2
2019-04-26T19:37:55.937Z,2
2019-04-26T19:43:01.839Z,2
2019-04-26T19:48:02.279Z,2
2019-04-26T19:53:03.328Z,2
2019-04-26T19:58:09.548Z,3
2019-04-26T20:03:08.433Z,3
2019-04-26T20:08:12.012Z,3
2019-04-26T20:13:14.949Z,3
2019-04-26T20:18:17.430Z,4
2019-04-26T20:23:19.571Z,3
2019-04-26T20:28:20.561Z,2
2019-04-26T20:33:26.572Z,3
2019-04-26T20:38:25.473Z,2
2019-04-26T20:43:27.844Z,1
2019-04-26T20:48:33.050Z,1
2019-04-26T20:53:39.795Z,1
2019-04-26T20:58:37.377Z,1
2019-04-26T21:03:41.630Z,1
2019-04-26T21:08:42.297Z,1
2019-04-26T21:13:42.561Z,1
2019-04-26T21:18:45.023Z,1
2019-04-26T21:23:47.536Z,1
2019-04-26T21:28:51.929Z,1
2019-04-26T21:33:53.520Z,1
2019-04-26T21:38:54.889Z,2
2019-04-26T21:43:57.316Z,1
2019-04-26T21:49:00.166Z,2
2019-04-26T21:54:03.737Z,2
2019-04-26T21:59:05.507Z,3
2019-04-26T22:04:07.162Z,3
2019-04-26T22:09:09.637Z,3
2019-04-26T22:14:13.073Z,3
2019-04-26T22:19:14.713Z,3
2019-04-26T22:24:17.373Z,4
2019-04-26T22:29:19.432Z,4
2019-04-26T22:34:23.517Z,4
2019-04-26T22:39:24.480Z,6
2019-04-26T22:44:31.142Z,5
2019-04-26T22:49:29.326Z,3
2019-04-26T22:54:33.098Z,4
2019-04-26T22:59:38.056Z,3
2019-04-26T23:04:36.694Z,4
2019-04-26T23:09:39.132Z,4
2019-04-26T23:14:41.602Z,5
2019-04-26T23:19:44.451Z,6
2019-04-26T23:24:49.127Z,6
2019-04-26T23:29:49.781Z,6
2019-04-26T23:34:53.121Z,5
2019-04-26T23:39:53.957Z,6
2019-04-26T23:44:56.695Z,6
2019-04-26T23:49:59.136Z,6
2019-04-26T23:55:05.473Z,6
